Soldotna, AK (99669)

3:10 PM AKDT on September 02, 2014 (GMT -0800)
W. Corral PWS | Change Station
CLOSE
Current Station
Personal Weather Station
Location: Soldotna, AK
Elevation: 110 ft
Nearby Weather Stations

Elev 110 ft 60.49 °N, 151.08 °W | Updated 3 seconds ago

Clear
Clear
74.3 °F
Feels Like 77 °F
N
6.9
Wind Variable Wind from SW
Gusts 9.2 mph

Today
High -- | Low -- °F
--% Chance of Precip.
Yesterday
High -- | Low -- °F
Precip. -- in
7:00 AM 9:05 PM
First Quarter, 56% visible
Pressure 29.90 in
Visibility 10.0 miles
Clouds Clear
Heat Index 77 °F
Dew Point 54 °F
Humidity 49%
Rainfall 0.00 in
Snow Depth Not available.
UV 4 out of 12
Pollen Not available.
Air Quality Not available.
Flu Activity Not available.
METAR PAEN 022253Z 19023G31KT 10SM CLR 16/09 A2989 RMK AO2 PK WND 19035/2156 SLP123 T01610094

More Conditions Fewer Conditions

Pressure 29.90 in
Visibility 10.0 miles
Clouds Clear
Heat Index 77 °F
Dew Point 54 °F
Humidity 49%
Rainfall 0.00 in
Snow Depth Not available.
UV 4 out of 12
Pollen Not available.
Air Quality Not available.
Flu Activity Not available.
METAR PAEN 022253Z 19023G31KT 10SM CLR 16/09 A2989 RMK AO2 PK WND 19035/2156 SLP123 T01610094

More Conditions Fewer Conditions

10-Day Weather Forecast

Almanac

Astronomy

Sep. 02, 2014 Rise Set
Actual Time 7:00 AM AKDT 9:05 PM AKDT
Civil Twilight 6:15 AM AKDT 9:50 PM AKDT
Nautical Twilight 5:16 AM AKDT 10:48 PM AKDT
Astronomical Twilight 3:59 AM AKDT 12:03 AM AKDT
Moon 4:50 PM AKDT No Moon Set
Length of Visible Light 15h 35m
Length of Day
14h 04m
Tomorrow will be 5m 29s shorter.
First Quarter, 56% of the Moon is Illuminated
Today
First Quarter
Sep 8
Full
Sep 15
Last Quarter
Sep 24
New
Oct 1
First Quarter

Today's Extremes

State Highs State Lows

Community

WunderPhotos

Upload Photos

1,749,794 photos uploaded!

Nearby

Snow Depth

Station Depth Elevation
Cooper Lake 19 in 1200 ft
MF Bradley River 2 in 2300 ft
Summit Creek 0 in 1400 ft
Mcneil Canyon 1 in 1320 ft
Grouse Creek Divide 0 in 700 ft

Earthquake Activity

City Distance Mag. Time & Date
No recent earthquake activity has been reported nearby.
Minimum magnitude displayed is 2.5.

Coastal Water Temperatures

Place Temperature
No Stations Reporting

Nearby Weather Stations